sensor_id;sensor_type;location;lat;lon;timestamp;P1;durP1;ratioP1;P2;durP2;ratioP2
12760;SDS011;6444;49.742;6.114;2022-11-15T00:01:26;37.13;;;21.52;;
12760;SDS011;6444;49.742;6.114;2022-11-15T00:03:52;33.55;;;21.12;;
12760;SDS011;6444;49.742;6.114;2022-11-15T00:06:20;35.20;;;20.85;;
12760;SDS011;6444;49.742;6.114;2022-11-15T00:08:46;30.73;;;19.87;;
12760;SDS011;6444;49.742;6.114;2022-11-15T00:11:13;34.50;;;21.17;;
12760;SDS011;6444;49.742;6.114;2022-11-15T00:13:40;41.92;;;29.10;;
12760;SDS011;6444;49.742;6.114;2022-11-15T00:16:06;33.10;;;22.30;;
12760;SDS011;6444;49.742;6.114;2022-11-15T00:18:33;31.00;;;21.58;;
12760;SDS011;6444;49.742;6.114;2022-11-15T00:21:04;33.63;;;21.70;;
12760;SDS011;6444;49.742;6.114;2022-11-15T00:23:29;33.10;;;20.50;;
12760;SDS011;6444;49.742;6.114;2022-11-15T00:25:56;40.17;;;28.25;;
12760;SDS011;6444;49.742;6.114;2022-11-15T00:28:23;31.77;;;20.85;;
12760;SDS011;6444;49.742;6.114;2022-11-15T00:30:49;39.50;;;26.05;;
12760;SDS011;6444;49.742;6.114;2022-11-15T00:33:16;31.58;;;20.98;;
12760;SDS011;6444;49.742;6.114;2022-11-15T00:35:42;36.50;;;20.92;;
12760;SDS011;6444;49.742;6.114;2022-11-15T00:38:09;31.80;;;19.42;;
12760;SDS011;6444;49.742;6.114;2022-11-15T00:40:36;28.83;;;18.77;;
12760;SDS011;6444;49.742;6.114;2022-11-15T00:43:02;30.25;;;19.83;;
12760;SDS011;6444;49.742;6.114;2022-11-15T00:45:29;27.80;;;17.65;;
12760;SDS011;6444;49.742;6.114;2022-11-15T00:47:56;27.73;;;18.42;;
12760;SDS011;6444;49.742;6.114;2022-11-15T00:50:23;27.48;;;18.35;;
12760;SDS011;6444;49.742;6.114;2022-11-15T00:52:50;29.55;;;18.27;;
12760;SDS011;6444;49.742;6.114;2022-11-15T00:55:17;28.27;;;18.65;;
12760;SDS011;6444;49.742;6.114;2022-11-15T00:57:43;26.48;;;17.60;;
12760;SDS011;6444;49.742;6.114;2022-11-15T01:00:10;25.60;;;18.00;;
12760;SDS011;6444;49.742;6.114;2022-11-15T01:02:36;32.30;;;18.62;;
12760;SDS011;6444;49.742;6.114;2022-11-15T01:05:03;28.60;;;17.85;;
12760;SDS011;6444;49.742;6.114;2022-11-15T01:07:30;28.10;;;18.05;;
12760;SDS011;6444;49.742;6.114;2022-11-15T01:09:57;30.85;;;18.37;;
12760;SDS011;6444;49.742;6.114;2022-11-15T01:12:23;27.92;;;18.42;;
12760;SDS011;6444;49.742;6.114;2022-11-15T01:14:50;27.73;;;17.67;;
12760;SDS011;6444;49.742;6.114;2022-11-15T01:17:17;29.40;;;18.50;;
12760;SDS011;6444;49.742;6.114;2022-11-15T01:19:43;25.27;;;17.08;;
12760;SDS011;6444;49.742;6.114;2022-11-15T01:22:10;29.12;;;18.30;;
12760;SDS011;6444;49.742;6.114;2022-11-15T01:24:37;28.90;;;17.00;;
12760;SDS011;6444;49.742;6.114;2022-11-15T01:27:04;25.80;;;16.98;;
12760;SDS011;6444;49.742;6.114;2022-11-15T01:29:31;26.08;;;16.25;;
12760;SDS011;6444;49.742;6.114;2022-11-15T01:31:57;23.12;;;15.40;;
12760;SDS011;6444;49.742;6.114;2022-11-15T01:34:24;24.90;;;16.60;;
12760;SDS011;6444;49.742;6.114;2022-11-15T01:36:51;23.38;;;15.13;;
12760;SDS011;6444;49.742;6.114;2022-11-15T01:39:17;21.27;;;15.98;;
12760;SDS011;6444;49.742;6.114;2022-11-15T01:41:44;19.55;;;12.68;;
12760;SDS011;6444;49.742;6.114;2022-11-15T01:47:21;16.45;;;10.02;;
12760;SDS011;6444;49.742;6.114;2022-11-15T01:50:00;12.27;;;10.50;;
12760;SDS011;6444;49.742;6.114;2022-11-15T01:52:24;12.48;;;8.98;;
12760;SDS011;6444;49.742;6.114;2022-11-15T01:54:50;13.15;;;8.45;;
12760;SDS011;6444;49.742;6.114;2022-11-15T01:57:16;10.23;;;8.05;;
12760;SDS011;6444;49.742;6.114;2022-11-15T01:59:44;11.02;;;6.60;;
12760;SDS011;6444;49.742;6.114;2022-11-15T02:02:10;9.68;;;6.62;;
12760;SDS011;6444;49.742;6.114;2022-11-15T02:04:43;11.45;;;7.28;;
12760;SDS011;6444;49.742;6.114;2022-11-15T02:07:06;9.65;;;7.00;;
12760;SDS011;6444;49.742;6.114;2022-11-15T02:09:34;8.30;;;5.93;;
12760;SDS011;6444;49.742;6.114;2022-11-15T02:12:00;9.27;;;5.97;;
12760;SDS011;6444;49.742;6.114;2022-11-15T02:14:26;9.48;;;6.30;;
12760;SDS011;6444;49.742;6.114;2022-11-15T02:19:49;8.90;;;6.20;;
12760;SDS011;6444;49.742;6.114;2022-11-15T02:25:19;8.85;;;5.87;;
12760;SDS011;6444;49.742;6.114;2022-11-15T02:30:52;10.07;;;6.90;;
12760;SDS011;6444;49.742;6.114;2022-11-15T02:33:50;7.60;;;5.75;;
12760;SDS011;6444;49.742;6.114;2022-11-15T02:36:18;7.30;;;5.28;;
12760;SDS011;6444;49.742;6.114;2022-11-15T02:38:47;7.18;;;5.10;;
12760;SDS011;6444;49.742;6.114;2022-11-15T02:41:25;7.43;;;5.43;;
12760;SDS011;6444;49.742;6.114;2022-11-15T02:43:53;6.62;;;4.93;;
12760;SDS011;6444;49.742;6.114;2022-11-15T02:46:24;7.62;;;6.07;;
12760;SDS011;6444;49.742;6.114;2022-11-15T02:48:51;6.55;;;5.12;;
12760;SDS011;6444;49.742;6.114;2022-11-15T02:51:18;6.20;;;5.05;;
12760;SDS011;6444;49.742;6.114;2022-11-15T02:53:45;7.60;;;6.12;;
12760;SDS011;6444;49.742;6.114;2022-11-15T02:56:11;9.82;;;5.75;;
12760;SDS011;6444;49.742;6.114;2022-11-15T02:58:46;9.02;;;4.95;;
12760;SDS011;6444;49.742;6.114;2022-11-15T03:01:29;8.60;;;5.00;;
12760;SDS011;6444;49.742;6.114;2022-11-15T03:09:35;5.53;;;4.55;;
12760;SDS011;6444;49.742;6.114;2022-11-15T03:12:07;5.93;;;4.93;;
12760;SDS011;6444;49.742;6.114;2022-11-15T03:14:32;6.50;;;4.70;;
12760;SDS011;6444;49.742;6.114;2022-11-15T03:22:17;5.35;;;4.70;;
12760;SDS011;6444;49.742;6.114;2022-11-15T03:24:43;7.07;;;4.78;;
12760;SDS011;6444;49.742;6.114;2022-11-15T03:27:10;6.95;;;5.10;;
12760;SDS011;6444;49.742;6.114;2022-11-15T03:29:37;5.90;;;5.18;;
12760;SDS011;6444;49.742;6.114;2022-11-15T03:32:05;6.95;;;5.12;;
12760;SDS011;6444;49.742;6.114;2022-11-15T03:34:38;5.85;;;4.82;;
12760;SDS011;6444;49.742;6.114;2022-11-15T03:37:06;8.38;;;5.30;;
12760;SDS011;6444;49.742;6.114;2022-11-15T03:39:32;6.12;;;4.78;;
12760;SDS011;6444;49.742;6.114;2022-11-15T03:47:43;5.55;;;4.50;;
12760;SDS011;6444;49.742;6.114;2022-11-15T03:50:10;6.85;;;4.22;;
12760;SDS011;6444;49.742;6.114;2022-11-15T03:52:38;5.12;;;4.25;;
12760;SDS011;6444;49.742;6.114;2022-11-15T03:55:05;6.07;;;4.25;;
12760;SDS011;6444;49.742;6.114;2022-11-15T03:57:31;6.12;;;4.45;;
12760;SDS011;6444;49.742;6.114;2022-11-15T03:59:58;5.95;;;3.95;;
12760;SDS011;6444;49.742;6.114;2022-11-15T04:02:24;8.23;;;4.40;;
12760;SDS011;6444;49.742;6.114;2022-11-15T04:04:51;4.70;;;4.07;;
12760;SDS011;6444;49.742;6.114;2022-11-15T04:07:18;5.60;;;4.47;;
12760;SDS011;6444;49.742;6.114;2022-11-15T04:09:45;6.45;;;4.57;;
12760;SDS011;6444;49.742;6.114;2022-11-15T04:12:30;5.90;;;4.55;;
12760;SDS011;6444;49.742;6.114;2022-11-15T04:15:03;8.43;;;4.40;;
12760;SDS011;6444;49.742;6.114;2022-11-15T04:20:01;5.60;;;4.35;;
12760;SDS011;6444;49.742;6.114;2022-11-15T04:22:45;7.03;;;5.50;;
12760;SDS011;6444;49.742;6.114;2022-11-15T04:25:30;5.90;;;4.43;;
12760;SDS011;6444;49.742;6.114;2022-11-15T04:27:56;5.97;;;5.37;;
12760;SDS011;6444;49.742;6.114;2022-11-15T04:30:23;5.20;;;4.20;;
12760;SDS011;6444;49.742;6.114;2022-11-15T04:32:50;7.30;;;4.72;;
12760;SDS011;6444;49.742;6.114;2022-11-15T04:35:16;5.20;;;4.05;;
12760;SDS011;6444;49.742;6.114;2022-11-15T04:37:44;6.22;;;4.75;;
12760;SDS011;6444;49.742;6.114;2022-11-15T04:40:10;6.32;;;4.30;;
12760;SDS011;6444;49.742;6.114;2022-11-15T04:42:37;6.28;;;4.28;;
12760;SDS011;6444;49.742;6.114;2022-11-15T04:45:04;6.10;;;4.32;;
12760;SDS011;6444;49.742;6.114;2022-11-15T04:47:30;6.20;;;4.82;;
12760;SDS011;6444;49.742;6.114;2022-11-15T04:49:57;7.30;;;4.87;;
12760;SDS011;6444;49.742;6.114;2022-11-15T04:52:24;6.65;;;4.40;;
12760;SDS011;6444;49.742;6.114;2022-11-15T04:54:50;7.28;;;4.00;;
12760;SDS011;6444;49.742;6.114;2022-11-15T04:57:18;4.60;;;3.60;;
12760;SDS011;6444;49.742;6.114;2022-11-15T04:59:44;6.25;;;4.82;;
12760;SDS011;6444;49.742;6.114;2022-11-15T05:02:11;6.87;;;4.28;;
12760;SDS011;6444;49.742;6.114;2022-11-15T05:04:38;6.22;;;4.68;;
12760;SDS011;6444;49.742;6.114;2022-11-15T05:07:04;7.55;;;4.72;;
12760;SDS011;6444;49.742;6.114;2022-11-15T05:09:31;6.00;;;4.75;;
12760;SDS011;6444;49.742;6.114;2022-11-15T05:11:59;7.00;;;4.18;;
12760;SDS011;6444;49.742;6.114;2022-11-15T05:14:25;6.50;;;4.85;;
12760;SDS011;6444;49.742;6.114;2022-11-15T05:16:52;7.93;;;5.07;;
12760;SDS011;6444;49.742;6.114;2022-11-15T05:19:19;6.93;;;5.18;;
12760;SDS011;6444;49.742;6.114;2022-11-15T05:21:47;8.65;;;5.37;;
12760;SDS011;6444;49.742;6.114;2022-11-15T05:24:12;10.60;;;5.40;;
12760;SDS011;6444;49.742;6.114;2022-11-15T05:26:39;7.70;;;5.20;;
12760;SDS011;6444;49.742;6.114;2022-11-15T05:29:06;9.32;;;7.30;;
12760;SDS011;6444;49.742;6.114;2022-11-15T05:31:32;7.53;;;5.70;;
12760;SDS011;6444;49.742;6.114;2022-11-15T05:33:59;7.32;;;5.93;;
12760;SDS011;6444;49.742;6.114;2022-11-15T05:39:04;7.82;;;5.60;;
12760;SDS011;6444;49.742;6.114;2022-11-15T05:41:35;7.68;;;5.95;;
12760;SDS011;6444;49.742;6.114;2022-11-15T05:44:01;9.65;;;6.20;;
12760;SDS011;6444;49.742;6.114;2022-11-15T05:46:27;9.47;;;6.07;;
12760;SDS011;6444;49.742;6.114;2022-11-15T05:48:53;9.48;;;6.12;;
12760;SDS011;6444;49.742;6.114;2022-11-15T05:51:20;13.05;;;9.15;;
12760;SDS011;6444;49.742;6.114;2022-11-15T05:53:47;12.77;;;8.90;;
12760;SDS011;6444;49.742;6.114;2022-11-15T05:56:13;9.70;;;5.68;;
12760;SDS011;6444;49.742;6.114;2022-11-15T05:58:40;10.00;;;6.10;;
12760;SDS011;6444;49.742;6.114;2022-11-15T06:01:07;9.10;;;5.53;;
12760;SDS011;6444;49.742;6.114;2022-11-15T06:03:33;14.45;;;6.45;;
12760;SDS011;6444;49.742;6.114;2022-11-15T06:06:00;6.87;;;4.80;;
12760;SDS011;6444;49.742;6.114;2022-11-15T06:08:27;6.82;;;4.62;;
12760;SDS011;6444;49.742;6.114;2022-11-15T06:10:54;9.57;;;5.50;;
12760;SDS011;6444;49.742;6.114;2022-11-15T06:13:21;10.07;;;6.12;;
12760;SDS011;6444;49.742;6.114;2022-11-15T06:15:47;7.97;;;4.82;;
12760;SDS011;6444;49.742;6.114;2022-11-15T06:18:14;13.07;;;8.20;;
12760;SDS011;6444;49.742;6.114;2022-11-15T06:20:40;9.85;;;5.53;;
12760;SDS011;6444;49.742;6.114;2022-11-15T06:23:07;8.52;;;4.37;;
12760;SDS011;6444;49.742;6.114;2022-11-15T06:25:34;5.70;;;4.47;;
12760;SDS011;6444;49.742;6.114;2022-11-15T06:28:00;6.62;;;4.37;;
12760;SDS011;6444;49.742;6.114;2022-11-15T06:30:27;6.82;;;4.85;;
12760;SDS011;6444;49.742;6.114;2022-11-15T06:33:04;6.82;;;4.90;;
12760;SDS011;6444;49.742;6.114;2022-11-15T06:35:30;5.43;;;4.70;;
12760;SDS011;6444;49.742;6.114;2022-11-15T06:37:59;8.65;;;5.10;;
12760;SDS011;6444;49.742;6.114;2022-11-15T06:40:23;8.20;;;4.80;;
12760;SDS011;6444;49.742;6.114;2022-11-15T06:42:50;9.80;;;6.62;;
12760;SDS011;6444;49.742;6.114;2022-11-15T06:45:17;12.52;;;8.65;;
12760;SDS011;6444;49.742;6.114;2022-11-15T06:47:44;6.30;;;5.00;;
12760;SDS011;6444;49.742;6.114;2022-11-15T06:50:13;8.43;;;6.13;;
12760;SDS011;6444;49.742;6.114;2022-11-15T06:52:39;8.38;;;5.65;;
12760;SDS011;6444;49.742;6.114;2022-11-15T06:55:06;12.20;;;4.55;;
12760;SDS011;6444;49.742;6.114;2022-11-15T06:57:33;8.27;;;4.37;;
12760;SDS011;6444;49.742;6.114;2022-11-15T07:00:00;10.32;;;4.35;;
12760;SDS011;6444;49.742;6.114;2022-11-15T07:02:27;9.05;;;4.90;;
12760;SDS011;6444;49.742;6.114;2022-11-15T07:04:53;10.52;;;5.10;;
12760;SDS011;6444;49.742;6.114;2022-11-15T07:07:20;6.12;;;5.00;;
12760;SDS011;6444;49.742;6.114;2022-11-15T07:09:47;10.00;;;4.90;;
12760;SDS011;6444;49.742;6.114;2022-11-15T07:12:13;6.57;;;4.53;;
12760;SDS011;6444;49.742;6.114;2022-11-15T07:14:41;5.68;;;4.85;;
12760;SDS011;6444;49.742;6.114;2022-11-15T07:17:07;13.07;;;5.33;;
12760;SDS011;6444;49.742;6.114;2022-11-15T07:19:34;9.23;;;5.40;;
12760;SDS011;6444;49.742;6.114;2022-11-15T07:22:01;8.57;;;5.35;;
12760;SDS011;6444;49.742;6.114;2022-11-15T07:24:27;8.45;;;5.70;;
12760;SDS011;6444;49.742;6.114;2022-11-15T07:26:54;7.90;;;5.27;;
12760;SDS011;6444;49.742;6.114;2022-11-15T07:29:21;9.07;;;5.68;;
12760;SDS011;6444;49.742;6.114;2022-11-15T07:31:47;11.43;;;6.00;;
12760;SDS011;6444;49.742;6.114;2022-11-15T07:34:14;8.82;;;5.90;;
12760;SDS011;6444;49.742;6.114;2022-11-15T07:36:40;11.32;;;5.68;;
12760;SDS011;6444;49.742;6.114;2022-11-15T07:39:07;6.03;;;4.87;;
12760;SDS011;6444;49.742;6.114;2022-11-15T07:41:34;8.65;;;5.82;;
12760;SDS011;6444;49.742;6.114;2022-11-15T07:44:00;7.43;;;5.60;;
12760;SDS011;6444;49.742;6.114;2022-11-15T07:46:27;8.15;;;5.65;;
12760;SDS011;6444;49.742;6.114;2022-11-15T07:48:54;7.93;;;4.87;;
12760;SDS011;6444;49.742;6.114;2022-11-15T07:51:20;10.65;;;6.60;;
12760;SDS011;6444;49.742;6.114;2022-11-15T07:53:48;5.95;;;5.05;;
12760;SDS011;6444;49.742;6.114;2022-11-15T07:58:42;10.15;;;5.30;;
12760;SDS011;6444;49.742;6.114;2022-11-15T08:01:09;7.53;;;4.90;;
12760;SDS011;6444;49.742;6.114;2022-11-15T08:03:36;8.45;;;4.97;;
12760;SDS011;6444;49.742;6.114;2022-11-15T08:06:02;9.80;;;6.60;;
12760;SDS011;6444;49.742;6.114;2022-11-15T08:08:29;8.40;;;5.12;;
12760;SDS011;6444;49.742;6.114;2022-11-15T08:10:57;12.70;;;5.95;;
12760;SDS011;6444;49.742;6.114;2022-11-15T08:13:22;5.75;;;4.68;;
12760;SDS011;6444;49.742;6.114;2022-11-15T08:15:48;9.95;;;5.50;;
12760;SDS011;6444;49.742;6.114;2022-11-15T08:18:16;11.35;;;5.53;;
12760;SDS011;6444;49.742;6.114;2022-11-15T08:20:42;7.18;;;4.15;;
12760;SDS011;6444;49.742;6.114;2022-11-15T08:23:10;7.78;;;4.40;;
12760;SDS011;6444;49.742;6.114;2022-11-15T08:25:36;12.65;;;5.93;;
12760;SDS011;6444;49.742;6.114;2022-11-15T08:28:03;8.45;;;6.25;;
12760;SDS011;6444;49.742;6.114;2022-11-15T08:30:29;9.13;;;6.00;;
12760;SDS011;6444;49.742;6.114;2022-11-15T08:32:56;6.35;;;5.37;;
12760;SDS011;6444;49.742;6.114;2022-11-15T08:35:23;7.25;;;5.53;;
12760;SDS011;6444;49.742;6.114;2022-11-15T08:37:51;9.07;;;5.60;;
12760;SDS011;6444;49.742;6.114;2022-11-15T08:40:16;8.40;;;4.85;;
12760;SDS011;6444;49.742;6.114;2022-11-15T08:42:43;3.85;;;3.40;;
12760;SDS011;6444;49.742;6.114;2022-11-15T08:45:10;4.87;;;4.18;;
12760;SDS011;6444;49.742;6.114;2022-11-15T08:47:36;5.53;;;3.83;;
12760;SDS011;6444;49.742;6.114;2022-11-15T08:50:03;7.00;;;3.28;;
12760;SDS011;6444;49.742;6.114;2022-11-15T08:52:29;7.53;;;3.92;;
12760;SDS011;6444;49.742;6.114;2022-11-15T08:54:56;11.93;;;4.30;;
12760;SDS011;6444;49.742;6.114;2022-11-15T08:57:23;6.28;;;4.15;;
12760;SDS011;6444;49.742;6.114;2022-11-15T08:59:49;6.43;;;3.87;;
12760;SDS011;6444;49.742;6.114;2022-11-15T09:02:17;8.73;;;4.37;;
12760;SDS011;6444;49.742;6.114;2022-11-15T09:04:43;7.60;;;4.35;;
12760;SDS011;6444;49.742;6.114;2022-11-15T09:07:10;8.43;;;5.03;;
12760;SDS011;6444;49.742;6.114;2022-11-15T09:09:36;7.43;;;4.75;;
12760;SDS011;6444;49.742;6.114;2022-11-15T09:12:03;7.55;;;5.05;;
12760;SDS011;6444;49.742;6.114;2022-11-15T09:14:29;5.07;;;3.62;;
12760;SDS011;6444;49.742;6.114;2022-11-15T09:16:56;5.68;;;3.70;;
12760;SDS011;6444;49.742;6.114;2022-11-15T09:19:22;8.82;;;3.47;;
12760;SDS011;6444;49.742;6.114;2022-11-15T09:21:49;5.80;;;2.90;;
12760;SDS011;6444;49.742;6.114;2022-11-15T09:24:16;3.50;;;2.80;;
12760;SDS011;6444;49.742;6.114;2022-11-15T09:26:42;4.10;;;2.92;;
12760;SDS011;6444;49.742;6.114;2022-11-15T09:29:09;4.43;;;2.92;;
12760;SDS011;6444;49.742;6.114;2022-11-15T09:31:35;6.20;;;3.37;;
12760;SDS011;6444;49.742;6.114;2022-11-15T09:34:02;3.37;;;2.90;;
12760;SDS011;6444;49.742;6.114;2022-11-15T09:36:29;4.60;;;2.70;;
12760;SDS011;6444;49.742;6.114;2022-11-15T09:38:57;4.07;;;2.75;;
12760;SDS011;6444;49.742;6.114;2022-11-15T09:49:15;5.43;;;2.53;;
12760;SDS011;6444;49.742;6.114;2022-11-15T09:51:43;6.10;;;2.62;;
12760;SDS011;6444;49.742;6.114;2022-11-15T09:54:26;3.40;;;2.95;;
12760;SDS011;6444;49.742;6.114;2022-11-15T09:56:53;5.75;;;3.20;;
12760;SDS011;6444;49.742;6.114;2022-11-15T09:59:23;3.92;;;2.92;;
12760;SDS011;6444;49.742;6.114;2022-11-15T10:04:33;4.07;;;3.17;;
12760;SDS011;6444;49.742;6.114;2022-11-15T10:07:13;4.30;;;3.17;;
12760;SDS011;6444;49.742;6.114;2022-11-15T10:12:20;4.78;;;3.10;;
12760;SDS011;6444;49.742;6.114;2022-11-15T10:14:47;5.45;;;3.62;;
12760;SDS011;6444;49.742;6.114;2022-11-15T10:24:43;7.22;;;4.40;;
12760;SDS011;6444;49.742;6.114;2022-11-15T10:27:11;7.20;;;4.65;;
12760;SDS011;6444;49.742;6.114;2022-11-15T10:29:36;7.22;;;4.70;;
12760;SDS011;6444;49.742;6.114;2022-11-15T10:32:03;6.72;;;5.20;;
12760;SDS011;6444;49.742;6.114;2022-11-15T10:34:34;6.12;;;5.18;;
12760;SDS011;6444;49.742;6.114;2022-11-15T10:36:57;7.85;;;5.87;;
12760;SDS011;6444;49.742;6.114;2022-11-15T10:39:23;8.90;;;5.37;;
12760;SDS011;6444;49.742;6.114;2022-11-15T10:41:49;6.37;;;5.25;;
12760;SDS011;6444;49.742;6.114;2022-11-15T10:46:44;6.68;;;5.43;;
12760;SDS011;6444;49.742;6.114;2022-11-15T10:49:14;5.93;;;5.35;;
12760;SDS011;6444;49.742;6.114;2022-11-15T10:51:49;6.93;;;5.40;;
12760;SDS011;6444;49.742;6.114;2022-11-15T10:54:21;10.77;;;6.05;;
12760;SDS011;6444;49.742;6.114;2022-11-15T10:56:50;8.35;;;5.22;;
12760;SDS011;6444;49.742;6.114;2022-11-15T10:59:21;7.95;;;5.32;;
12760;SDS011;6444;49.742;6.114;2022-11-15T11:01:47;6.93;;;5.43;;
12760;SDS011;6444;49.742;6.114;2022-11-15T11:04:13;7.95;;;5.07;;
12760;SDS011;6444;49.742;6.114;2022-11-15T11:06:47;6.28;;;5.22;;
12760;SDS011;6444;49.742;6.114;2022-11-15T11:09:35;6.53;;;4.90;;
12760;SDS011;6444;49.742;6.114;2022-11-15T11:11:57;6.77;;;5.20;;
12760;SDS011;6444;49.742;6.114;2022-11-15T11:14:25;5.60;;;4.80;;
12760;SDS011;6444;49.742;6.114;2022-11-15T11:16:51;6.35;;;5.12;;
12760;SDS011;6444;49.742;6.114;2022-11-15T11:19:22;7.43;;;4.45;;
12760;SDS011;6444;49.742;6.114;2022-11-15T11:21:50;6.15;;;4.95;;
12760;SDS011;6444;49.742;6.114;2022-11-15T11:24:36;6.20;;;4.70;;
12760;SDS011;6444;49.742;6.114;2022-11-15T11:27:07;7.82;;;4.78;;
12760;SDS011;6444;49.742;6.114;2022-11-15T11:30:02;6.53;;;5.30;;
12760;SDS011;6444;49.742;6.114;2022-11-15T11:32:55;6.35;;;4.65;;
12760;SDS011;6444;49.742;6.114;2022-11-15T11:35:43;7.70;;;4.35;;
12760;SDS011;6444;49.742;6.114;2022-11-15T11:37:49;7.87;;;4.90;;
12760;SDS011;6444;49.742;6.114;2022-11-15T11:40:26;5.62;;;4.97;;
12760;SDS011;6444;49.742;6.114;2022-11-15T11:51:21;7.22;;;4.82;;
12760;SDS011;6444;49.742;6.114;2022-11-15T11:53:58;5.03;;;4.22;;
12760;SDS011;6444;49.742;6.114;2022-11-15T11:56:28;6.40;;;4.37;;
12760;SDS011;6444;49.742;6.114;2022-11-15T11:58:53;6.12;;;4.57;;
12760;SDS011;6444;49.742;6.114;2022-11-15T12:01:28;7.57;;;4.40;;
12760;SDS011;6444;49.742;6.114;2022-11-15T12:12:10;5.25;;;4.15;;
12760;SDS011;6444;49.742;6.114;2022-11-15T12:14:48;7.95;;;4.85;;
12760;SDS011;6444;49.742;6.114;2022-11-15T12:17:17;5.45;;;4.40;;
12760;SDS011;6444;49.742;6.114;2022-11-15T12:19:43;8.50;;;4.78;;
12760;SDS011;6444;49.742;6.114;2022-11-15T12:24:43;7.62;;;3.97;;
12760;SDS011;6444;49.742;6.114;2022-11-15T12:29:44;8.73;;;3.85;;
12760;SDS011;6444;49.742;6.114;2022-11-15T12:34:54;7.72;;;4.18;;
12760;SDS011;6444;49.742;6.114;2022-11-15T12:37:34;4.43;;;3.90;;
12760;SDS011;6444;49.742;6.114;2022-11-15T12:42:42;5.22;;;4.07;;
12760;SDS011;6444;49.742;6.114;2022-11-15T12:48:45;4.97;;;4.07;;
12760;SDS011;6444;49.742;6.114;2022-11-15T12:58:46;8.25;;;4.78;;
12760;SDS011;6444;49.742;6.114;2022-11-15T13:06:46;6.37;;;3.42;;
12760;SDS011;6444;49.742;6.114;2022-11-15T13:12:00;6.20;;;3.50;;
12760;SDS011;6444;49.742;6.114;2022-11-15T13:14:39;7.50;;;4.30;;
12760;SDS011;6444;49.742;6.114;2022-11-15T13:19:53;6.22;;;3.60;;
12760;SDS011;6444;49.742;6.114;2022-11-15T13:22:19;5.03;;;3.05;;
12760;SDS011;6444;49.742;6.114;2022-11-15T13:25:03;5.05;;;2.78;;
12760;SDS011;6444;49.742;6.114;2022-11-15T13:27:30;4.43;;;2.90;;
12760;SDS011;6444;49.742;6.114;2022-11-15T13:29:56;4.05;;;3.20;;
12760;SDS011;6444;49.742;6.114;2022-11-15T13:32:23;5.75;;;3.47;;
12760;SDS011;6444;49.742;6.114;2022-11-15T13:34:50;5.32;;;3.15;;
12760;SDS011;6444;49.742;6.114;2022-11-15T13:37:27;3.47;;;2.80;;
12760;SDS011;6444;49.742;6.114;2022-11-15T13:39:46;5.20;;;3.45;;
12760;SDS011;6444;49.742;6.114;2022-11-15T13:42:16;3.05;;;2.80;;
12760;SDS011;6444;49.742;6.114;2022-11-15T13:44:54;2.83;;;2.53;;
12760;SDS011;6444;49.742;6.114;2022-11-15T13:47:21;4.72;;;4.32;;
12760;SDS011;6444;49.742;6.114;2022-11-15T13:49:48;8.40;;;3.30;;
12760;SDS011;6444;49.742;6.114;2022-11-15T13:52:15;3.83;;;2.70;;
12760;SDS011;6444;49.742;6.114;2022-11-15T13:54:50;5.07;;;3.30;;
12760;SDS011;6444;49.742;6.114;2022-11-15T13:57:24;5.15;;;3.10;;
12760;SDS011;6444;49.742;6.114;2022-11-15T13:59:50;6.68;;;3.40;;
12760;SDS011;6444;49.742;6.114;2022-11-15T14:02:25;3.33;;;3.03;;
12760;SDS011;6444;49.742;6.114;2022-11-15T14:04:49;5.20;;;3.40;;
12760;SDS011;6444;49.742;6.114;2022-11-15T14:07:18;3.50;;;3.20;;
12760;SDS011;6444;49.742;6.114;2022-11-15T14:09:45;3.75;;;3.45;;
12760;SDS011;6444;49.742;6.114;2022-11-15T14:12:31;4.85;;;3.30;;
12760;SDS011;6444;49.742;6.114;2022-11-15T14:14:57;4.32;;;3.78;;
12760;SDS011;6444;49.742;6.114;2022-11-15T14:19:57;5.32;;;3.05;;
12760;SDS011;6444;49.742;6.114;2022-11-15T14:22:24;3.37;;;3.03;;
12760;SDS011;6444;49.742;6.114;2022-11-15T14:27:42;3.10;;;2.45;;
12760;SDS011;6444;49.742;6.114;2022-11-15T14:30:18;2.83;;;2.55;;
12760;SDS011;6444;49.742;6.114;2022-11-15T14:32:48;3.25;;;2.92;;
12760;SDS011;6444;49.742;6.114;2022-11-15T14:35:16;3.47;;;2.72;;
12760;SDS011;6444;49.742;6.114;2022-11-15T14:37:40;4.07;;;2.50;;
12760;SDS011;6444;49.742;6.114;2022-11-15T14:40:08;3.95;;;2.45;;
12760;SDS011;6444;49.742;6.114;2022-11-15T14:42:33;2.62;;;2.30;;
12760;SDS011;6444;49.742;6.114;2022-11-15T14:45:00;2.85;;;2.17;;
12760;SDS011;6444;49.742;6.114;2022-11-15T14:47:27;3.08;;;2.78;;
12760;SDS011;6444;49.742;6.114;2022-11-15T14:49:54;2.37;;;2.17;;
12760;SDS011;6444;49.742;6.114;2022-11-15T14:52:28;3.00;;;2.17;;
12760;SDS011;6444;49.742;6.114;2022-11-15T14:54:54;1.98;;;1.75;;
12760;SDS011;6444;49.742;6.114;2022-11-15T14:57:20;3.50;;;2.15;;
12760;SDS011;6444;49.742;6.114;2022-11-15T14:59:47;3.20;;;2.10;;
12760;SDS011;6444;49.742;6.114;2022-11-15T15:02:17;2.95;;;2.10;;
12760;SDS011;6444;49.742;6.114;2022-11-15T15:04:43;3.83;;;2.22;;
12760;SDS011;6444;49.742;6.114;2022-11-15T15:07:09;2.15;;;1.95;;
12760;SDS011;6444;49.742;6.114;2022-11-15T15:09:36;3.17;;;1.83;;
12760;SDS011;6444;49.742;6.114;2022-11-15T15:12:04;2.12;;;2.00;;
12760;SDS011;6444;49.742;6.114;2022-11-15T15:14:31;3.25;;;2.30;;
12760;SDS011;6444;49.742;6.114;2022-11-15T15:16:58;2.33;;;2.12;;
12760;SDS011;6444;49.742;6.114;2022-11-15T15:19:25;4.50;;;2.33;;
12760;SDS011;6444;49.742;6.114;2022-11-15T15:21:52;2.25;;;2.00;;
12760;SDS011;6444;49.742;6.114;2022-11-15T15:24:18;4.22;;;2.15;;
12760;SDS011;6444;49.742;6.114;2022-11-15T15:26:45;2.53;;;2.33;;
12760;SDS011;6444;49.742;6.114;2022-11-15T15:29:11;3.20;;;2.50;;
12760;SDS011;6444;49.742;6.114;2022-11-15T15:31:39;2.92;;;2.40;;
12760;SDS011;6444;49.742;6.114;2022-11-15T15:34:05;2.33;;;2.12;;
12760;SDS011;6444;49.742;6.114;2022-11-15T15:36:32;2.55;;;2.20;;
12760;SDS011;6444;49.742;6.114;2022-11-15T15:38:59;2.67;;;2.22;;
12760;SDS011;6444;49.742;6.114;2022-11-15T15:41:26;4.10;;;2.55;;
12760;SDS011;6444;49.742;6.114;2022-11-15T15:43:53;4.78;;;2.87;;
12760;SDS011;6444;49.742;6.114;2022-11-15T15:46:19;3.12;;;2.35;;
12760;SDS011;6444;49.742;6.114;2022-11-15T15:48:46;2.97;;;2.75;;
12760;SDS011;6444;49.742;6.114;2022-11-15T15:51:13;3.10;;;2.60;;
12760;SDS011;6444;49.742;6.114;2022-11-15T15:53:39;3.67;;;2.70;;
12760;SDS011;6444;49.742;6.114;2022-11-15T15:56:06;3.47;;;3.03;;
12760;SDS011;6444;49.742;6.114;2022-11-15T15:58:35;3.53;;;3.10;;
12760;SDS011;6444;49.742;6.114;2022-11-15T16:01:02;3.12;;;2.60;;
12760;SDS011;6444;49.742;6.114;2022-11-15T16:03:29;3.90;;;3.15;;
12760;SDS011;6444;49.742;6.114;2022-11-15T16:05:56;3.17;;;2.83;;
12760;SDS011;6444;49.742;6.114;2022-11-15T16:08:23;3.33;;;2.83;;
12760;SDS011;6444;49.742;6.114;2022-11-15T16:10:49;3.40;;;3.10;;
12760;SDS011;6444;49.742;6.114;2022-11-15T16:13:17;3.30;;;3.00;;
12760;SDS011;6444;49.742;6.114;2022-11-15T16:15:43;3.80;;;2.97;;
12760;SDS011;6444;49.742;6.114;2022-11-15T16:18:14;3.20;;;2.90;;
12760;SDS011;6444;49.742;6.114;2022-11-15T16:20:40;3.90;;;3.35;;
12760;SDS011;6444;49.742;6.114;2022-11-15T16:23:07;4.03;;;2.95;;
12760;SDS011;6444;49.742;6.114;2022-11-15T16:25:34;4.53;;;3.15;;
12760;SDS011;6444;49.742;6.114;2022-11-15T16:27:59;4.60;;;4.10;;
12760;SDS011;6444;49.742;6.114;2022-11-15T16:30:26;3.90;;;3.45;;
12760;SDS011;6444;49.742;6.114;2022-11-15T16:32:52;4.37;;;3.65;;
12760;SDS011;6444;49.742;6.114;2022-11-15T16:35:19;4.30;;;3.87;;
12760;SDS011;6444;49.742;6.114;2022-11-15T16:37:46;4.18;;;3.28;;
12760;SDS011;6444;49.742;6.114;2022-11-15T16:40:24;5.10;;;3.97;;
12760;SDS011;6444;49.742;6.114;2022-11-15T16:42:52;4.30;;;3.40;;
12760;SDS011;6444;49.742;6.114;2022-11-15T16:45:18;7.12;;;4.37;;
12760;SDS011;6444;49.742;6.114;2022-11-15T16:47:45;6.00;;;3.83;;
12760;SDS011;6444;49.742;6.114;2022-11-15T16:50:22;5.78;;;4.07;;
12760;SDS011;6444;49.742;6.114;2022-11-15T16:52:47;4.12;;;3.25;;
12760;SDS011;6444;49.742;6.114;2022-11-15T16:55:14;4.45;;;3.67;;
12760;SDS011;6444;49.742;6.114;2022-11-15T16:57:41;4.60;;;3.47;;